createdAt,value
2023-01-12T00:00:49.483Z,99530.34
2023-01-12T00:03:15.818Z,99545.16
2023-01-12T00:05:42.099Z,99548.63
2023-01-12T00:08:08.986Z,99585.25
2023-01-12T00:10:35.503Z,99622.28
2023-01-12T00:13:02.007Z,99650.13
2023-01-12T00:15:28.496Z,99676.59
2023-01-12T00:17:54.822Z,99689.78
2023-01-12T00:20:21.450Z,99685.16
2023-01-12T00:22:48.009Z,99685.41
2023-01-12T00:25:14.477Z,99679.84
2023-01-12T00:27:40.781Z,99675.09
2023-01-12T00:30:08.081Z,99667.84
2023-01-12T00:32:34.528Z,99659.22
2023-01-12T00:35:01.056Z,99654.50
2023-01-12T00:37:27.462Z,99652.53
2023-01-12T00:40:01.947Z,99656.53
2023-01-12T00:42:29.071Z,99660.31
2023-01-12T00:44:55.722Z,99667.16
2023-01-12T00:47:22.268Z,99659.53
2023-01-12T00:49:49.331Z,99672.63
2023-01-12T00:52:30.040Z,99680.69
2023-01-12T00:54:59.611Z,99688.50
2023-01-12T00:57:26.784Z,99690.06
2023-01-12T00:59:53.107Z,99706.97
2023-01-12T01:02:19.511Z,99715.56
2023-01-12T01:04:45.861Z,99713.34
2023-01-12T01:07:13.867Z,99717.50
2023-01-12T01:09:40.279Z,99717.81
2023-01-12T01:12:06.848Z,99711.09
2023-01-12T01:14:33.259Z,99709.00
2023-01-12T01:16:59.910Z,99708.59
2023-01-12T01:19:26.221Z,99715.50
2023-01-12T01:21:52.524Z,99732.19
2023-01-12T01:24:18.905Z,99722.97
2023-01-12T01:26:45.290Z,99717.22
2023-01-12T01:29:11.762Z,99712.22
2023-01-12T01:31:38.189Z,99716.97
2023-01-12T01:34:04.718Z,99708.09
2023-01-12T01:36:31.393Z,99704.06
2023-01-12T01:38:57.832Z,99709.09
2023-01-12T01:41:30.402Z,99705.16
2023-01-12T01:44:02.745Z,99697.34
2023-01-12T01:46:47.775Z,99703.22
2023-01-12T01:49:23.954Z,99695.00
2023-01-12T01:51:52.990Z,99706.44
2023-01-12T01:54:19.394Z,99697.84
2023-01-12T01:56:46.294Z,99697.28
2023-01-12T01:59:18.024Z,99704.94
2023-01-12T02:01:44.926Z,99709.81
2023-01-12T02:04:11.765Z,99704.16
2023-01-12T02:06:38.678Z,99719.91
2023-01-12T02:09:11.663Z,99715.91
2023-01-12T02:11:38.004Z,99714.78
2023-01-12T02:14:05.044Z,99703.91
2023-01-12T02:16:33.625Z,99707.97
2023-01-12T02:19:10.047Z,99703.34
2023-01-12T02:22:03.724Z,99691.94
2023-01-12T02:25:11.889Z,99698.88
2023-01-12T02:28:03.147Z,99681.22
2023-01-12T02:30:43.930Z,99680.78
2023-01-12T02:33:35.185Z,99683.31
2023-01-12T02:36:16.496Z,99684.81
2023-01-12T02:38:45.781Z,99678.97
2023-01-12T02:41:36.483Z,99634.75
2023-01-12T02:44:04.637Z,99612.16
2023-01-12T02:46:32.391Z,99604.34
2023-01-12T02:49:21.116Z,99578.09
2023-01-12T02:51:59.221Z,99573.25
2023-01-12T02:54:28.695Z,99568.19
2023-01-12T02:57:01.644Z,99525.66
2023-01-12T02:59:31.857Z,99514.38
2023-01-12T03:02:03.968Z,99515.38
2023-01-12T03:04:32.635Z,99510.63
2023-01-12T03:06:58.924Z,99490.88
2023-01-12T03:09:31.931Z,99498.88
2023-01-12T03:12:11.480Z,99506.53
2023-01-12T03:14:41.773Z,99511.41
2023-01-12T03:17:14.233Z,99514.94
2023-01-12T03:19:43.714Z,99517.00
2023-01-12T03:22:13.717Z,99491.41
2023-01-12T03:24:53.648Z,99489.13
2023-01-12T03:27:46.221Z,99485.41
2023-01-12T03:30:37.407Z,99494.72
2023-01-12T03:33:05.110Z,99471.78
2023-01-12T03:35:38.507Z,99467.69
2023-01-12T03:38:22.988Z,99443.84
2023-01-12T03:40:57.074Z,99424.03
2023-01-12T03:43:37.598Z,99378.72
2023-01-12T03:46:14.396Z,99368.72
2023-01-12T03:48:52.592Z,99378.22
2023-01-12T03:51:25.889Z,99372.91
2023-01-12T03:53:54.804Z,99363.22
2023-01-12T03:56:24.167Z,99403.47
2023-01-12T03:58:51.813Z,99437.16
2023-01-12T04:01:18.370Z,99417.94
2023-01-12T04:03:44.875Z,99430.03
2023-01-12T04:06:11.377Z,99435.03
2023-01-12T04:08:37.883Z,99437.59
2023-01-12T04:11:04.338Z,99441.91
2023-01-12T04:13:30.628Z,99434.50
2023-01-12T04:15:57.012Z,99444.63
2023-01-12T04:18:23.848Z,99454.72
2023-01-12T04:20:50.165Z,99474.50
2023-01-12T04:23:16.676Z,99494.16
2023-01-12T04:25:43.295Z,99509.63
2023-01-12T04:28:09.767Z,99511.75
2023-01-12T04:30:36.182Z,99511.59
2023-01-12T04:33:07.375Z,99515.63
2023-01-12T04:35:33.889Z,99516.84
2023-01-12T04:38:06.290Z,99517.69
2023-01-12T04:40:32.634Z,99516.72
2023-01-12T04:42:58.974Z,99519.06
2023-01-12T04:45:25.303Z,99516.56
2023-01-12T04:47:51.654Z,99518.38
2023-01-12T04:50:18.250Z,99518.50
2023-01-12T04:52:44.707Z,99512.78
2023-01-12T04:55:11.317Z,99505.66
2023-01-12T04:57:37.747Z,99505.97
2023-01-12T05:00:05.518Z,99512.41
2023-01-12T05:02:32.166Z,99519.59
2023-01-12T05:04:58.593Z,99495.31
2023-01-12T05:07:25.277Z,99491.84
2023-01-12T05:09:51.611Z,99479.84
2023-01-12T05:12:18.152Z,99477.06
2023-01-12T05:14:44.706Z,99488.56
2023-01-12T05:17:11.113Z,99464.88
2023-01-12T05:19:37.452Z,99476.16
2023-01-12T05:22:03.781Z,99463.00
2023-01-12T05:24:30.188Z,99457.03
2023-01-12T05:26:56.534Z,99466.16
2023-01-12T05:29:22.878Z,99464.50
2023-01-12T05:31:49.216Z,99459.38
2023-01-12T05:34:15.863Z,99461.56
2023-01-12T05:36:42.529Z,99464.22
2023-01-12T05:39:09.052Z,99475.50
2023-01-12T05:41:35.486Z,99468.22
2023-01-12T05:44:02.095Z,99463.47
2023-01-12T05:46:30.931Z,99462.19
2023-01-12T05:48:58.260Z,99449.59
2023-01-12T05:51:26.741Z,99449.59
2023-01-12T05:53:53.095Z,99448.94
2023-01-12T05:56:22.529Z,99448.78
2023-01-12T05:58:50.844Z,99455.38
2023-01-12T06:01:17.293Z,99461.66
2023-01-12T06:03:43.733Z,99466.09
2023-01-12T06:06:10.048Z,99476.03
2023-01-12T06:08:36.426Z,99475.88
2023-01-12T06:11:03.244Z,99459.00
2023-01-12T06:13:30.336Z,99456.38
2023-01-12T06:16:01.589Z,99439.00
2023-01-12T06:18:28.048Z,99427.56
2023-01-12T06:20:59.640Z,99421.31
2023-01-12T06:23:34.993Z,99437.66
2023-01-12T06:26:04.466Z,99438.25
2023-01-12T06:28:31.180Z,99431.06
2023-01-12T06:31:03.396Z,99434.97
2023-01-12T06:33:31.270Z,99427.78
2023-01-12T06:35:57.751Z,99441.56
2023-01-12T06:38:26.203Z,99414.84
2023-01-12T06:40:53.214Z,99397.38
2023-01-12T06:43:19.822Z,99391.38
2023-01-12T06:45:46.345Z,99400.47
2023-01-12T06:48:12.688Z,99369.47
2023-01-12T06:50:39.080Z,99376.69
2023-01-12T06:53:06.172Z,99344.03
2023-01-12T06:55:34.038Z,99355.47
2023-01-12T06:58:03.679Z,99339.03
2023-01-12T07:00:31.050Z,99353.56
2023-01-12T07:02:57.939Z,99366.00
2023-01-12T07:05:24.649Z,99381.25
2023-01-12T07:07:57.309Z,99384.25
2023-01-12T07:10:23.835Z,99375.19
2023-01-12T07:12:50.559Z,99297.50
2023-01-12T07:15:17.062Z,99258.66
2023-01-12T07:17:43.659Z,99253.34
2023-01-12T07:20:10.466Z,99238.16
2023-01-12T07:22:36.934Z,99222.94
2023-01-12T07:25:03.362Z,99212.50
2023-01-12T07:27:29.721Z,99206.69
2023-01-12T07:29:56.085Z,99191.28
2023-01-12T07:32:25.723Z,99188.09
2023-01-12T07:34:52.341Z,99169.25
2023-01-12T07:37:18.797Z,99184.69
2023-01-12T07:39:45.521Z,99163.94
2023-01-12T07:42:12.055Z,99168.09
2023-01-12T07:44:38.475Z,99184.50
2023-01-12T07:47:05.032Z,99174.88
2023-01-12T07:49:32.163Z,99146.50
2023-01-12T07:51:58.900Z,99142.38
2023-01-12T07:54:25.655Z,99146.34
2023-01-12T07:56:52.241Z,99135.38
2023-01-12T07:59:18.905Z,99142.03
2023-01-12T08:01:45.375Z,99136.69
2023-01-12T08:04:12.207Z,99136.22
2023-01-12T08:06:39.850Z,99132.53
2023-01-12T08:09:06.407Z,99117.91
2023-01-12T08:11:32.858Z,99087.31
2023-01-12T08:13:59.316Z,99087.31
2023-01-12T08:16:31.625Z,99059.44
2023-01-12T08:19:36.120Z,99109.78
2023-01-12T08:22:07.652Z,99090.84
2023-01-12T08:24:40.441Z,99091.50
2023-01-12T08:27:08.930Z,99080.19
2023-01-12T08:29:41.050Z,99064.00
2023-01-12T08:34:36.501Z,99050.03
2023-01-12T08:37:06.603Z,99049.34
2023-01-12T08:39:33.431Z,99037.97
2023-01-12T08:42:00.181Z,99051.97
2023-01-12T08:44:26.685Z,99058.59
2023-01-12T08:46:54.106Z,99060.25
2023-01-12T08:49:24.600Z,99044.28
2023-01-12T08:51:51.583Z,99050.44
2023-01-12T08:54:20.235Z,99066.22
2023-01-12T08:56:47.186Z,99054.72
2023-01-12T08:59:13.845Z,99044.56
2023-01-12T09:01:41.117Z,99030.69
2023-01-12T09:04:08.236Z,99024.34
2023-01-12T09:06:37.401Z,99043.34
2023-01-12T09:09:06.822Z,99026.25
2023-01-12T09:11:33.587Z,99019.72
2023-01-12T09:14:00.414Z,99022.75
2023-01-12T09:16:29.410Z,99019.88
2023-01-12T09:18:56.775Z,99041.88
2023-01-12T09:21:25.855Z,99022.22
2023-01-12T09:23:53.261Z,99048.06
2023-01-12T09:26:22.705Z,99027.09
2023-01-12T09:28:50.065Z,99024.31
2023-01-12T09:31:19.097Z,99044.13
2023-01-12T09:33:46.762Z,99035.16
2023-01-12T09:36:15.636Z,99038.63
2023-01-12T09:38:43.799Z,99048.97
2023-01-12T09:41:13.088Z,99062.47
2023-01-12T09:43:41.196Z,99062.81
2023-01-12T09:46:18.554Z,99050.16
2023-01-12T09:48:45.304Z,99063.81
2023-01-12T09:51:25.654Z,99079.78
2023-01-12T09:53:52.508Z,99083.56
2023-01-12T09:56:35.019Z,99080.78
2023-01-12T09:59:18.485Z,99080.78
2023-01-12T10:01:45.536Z,99092.72
2023-01-12T10:04:13.589Z,99074.75
2023-01-12T10:06:40.812Z,99052.41
2023-01-12T10:09:14.831Z,99033.22
2023-01-12T10:12:07.076Z,99032.69
2023-01-12T10:14:33.582Z,99031.69
2023-01-12T10:17:21.362Z,99012.53
2023-01-12T10:19:56.897Z,99017.50
2023-01-12T10:22:39.303Z,99012.47
2023-01-12T10:25:48.435Z,99001.91
2023-01-12T10:28:32.140Z,98983.19
2023-01-12T10:31:00.056Z,98975.50
2023-01-12T10:33:34.631Z,98965.00
2023-01-12T10:36:07.427Z,98963.81
2023-01-12T10:38:52.462Z,98944.88
2023-01-12T10:41:30.732Z,98956.28
2023-01-12T10:44:00.362Z,98952.81
2023-01-12T10:46:32.929Z,98960.34
2023-01-12T10:49:23.931Z,98957.50
2023-01-12T10:51:53.532Z,98957.22
2023-01-12T10:54:24.267Z,98951.72
2023-01-12T10:57:01.951Z,98949.13
2023-01-12T10:59:34.211Z,98950.47
2023-01-12T11:02:06.722Z,98950.69
2023-01-12T11:04:51.103Z,98958.09
2023-01-12T11:07:23.397Z,98949.13
2023-01-12T11:09:50.058Z,98958.47
2023-01-12T11:12:26.303Z,98956.19
2023-01-12T11:15:23.544Z,98956.75
2023-01-12T11:18:08.782Z,98935.97
2023-01-12T11:20:49.140Z,98935.59
2023-01-12T11:23:19.344Z,98936.69
2023-01-12T11:25:50.055Z,98933.59
2023-01-12T11:28:26.562Z,98933.66
2023-01-12T11:30:55.102Z,98925.88
2023-01-12T11:33:27.724Z,98916.03
2023-01-12T11:36:06.844Z,98925.22
2023-01-12T11:38:38.610Z,98906.47
2023-01-12T11:41:10.267Z,98907.28
2023-01-12T11:43:51.545Z,98910.13
2023-01-12T11:46:39.533Z,98925.59
2023-01-12T11:49:18.213Z,98929.81
2023-01-12T11:51:48.746Z,98928.84
2023-01-12T11:54:17.820Z,98919.66
2023-01-12T11:57:03.719Z,98932.41
2023-01-12T11:59:36.711Z,98913.44
2023-01-12T12:03:00.489Z,98919.69
2023-01-12T12:05:54.801Z,98926.50
2023-01-12T12:08:35.961Z,98919.78
2023-01-12T12:11:23.894Z,98913.72
2023-01-12T12:13:53.122Z,98899.44
2023-01-12T12:17:01.425Z,98888.00
2023-01-12T12:19:42.692Z,98896.28
2023-01-12T12:22:50.936Z,98883.94
2023-01-12T12:25:45.833Z,98883.50
2023-01-12T12:28:22.174Z,98891.56
2023-01-12T12:31:00.739Z,98877.28
2023-01-12T12:33:41.671Z,98872.19
2023-01-12T12:36:18.550Z,98874.75
2023-01-12T12:39:09.862Z,98862.53
2023-01-12T12:41:41.645Z,98844.88
2023-01-12T12:44:34.674Z,98867.56
2023-01-12T12:47:11.260Z,98841.09
2023-01-12T12:49:39.126Z,98849.38
2023-01-12T12:52:07.795Z,98842.00
2023-01-12T12:54:35.059Z,98844.28
2023-01-12T12:57:01.898Z,98853.06
2023-01-12T12:59:52.817Z,98851.81
2023-01-12T13:02:37.651Z,98844.81
2023-01-12T13:05:07.511Z,98841.13
2023-01-12T13:07:37.799Z,98838.41
2023-01-12T13:10:32.003Z,98839.84
2023-01-12T13:13:02.930Z,98839.84
2023-01-12T13:15:33.170Z,98845.94
2023-01-12T13:17:59.927Z,98845.19
2023-01-12T13:20:48.669Z,98855.69
2023-01-12T13:23:45.782Z,98875.06
2023-01-12T13:26:33.690Z,98864.34
2023-01-12T13:29:27.997Z,98861.50
2023-01-12T13:31:59.764Z,98861.03
2023-01-12T13:34:39.662Z,98861.47
2023-01-12T13:37:23.780Z,98863.69
2023-01-12T13:40:13.281Z,98872.72
2023-01-12T13:42:39.806Z,98869.03
2023-01-12T13:45:11.217Z,98866.09
2023-01-12T13:47:37.888Z,98860.81
2023-01-12T13:50:07.111Z,98870.28
2023-01-12T13:52:35.776Z,98880.91
2023-01-12T13:55:04.843Z,98883.13
2023-01-12T13:57:31.711Z,98880.25
2023-01-12T14:00:07.011Z,98884.97
2023-01-12T14:02:33.587Z,98882.31
2023-01-12T14:05:07.438Z,98880.63
2023-01-12T14:07:51.942Z,98879.00
2023-01-12T14:10:49.140Z,98899.91
2023-01-12T14:13:34.036Z,98912.78
2023-01-12T14:16:09.839Z,98912.13
2023-01-12T14:18:44.693Z,98899.84
2023-01-12T14:21:33.177Z,98890.19
2023-01-12T14:24:17.793Z,98892.66
2023-01-12T14:26:44.182Z,98897.34
2023-01-12T14:29:10.617Z,98891.19
2023-01-12T14:31:40.435Z,98902.00
2023-01-12T14:34:35.031Z,98906.56
2023-01-12T14:37:04.384Z,98882.34
2023-01-12T14:39:38.229Z,98889.66
2023-01-12T14:42:04.859Z,98886.81
2023-01-12T14:44:34.007Z,98878.97
2023-01-12T14:47:00.637Z,98880.38
2023-01-12T14:49:30.238Z,98885.06
2023-01-12T14:51:59.715Z,98890.78
2023-01-12T14:54:29.154Z,98874.22
2023-01-12T14:57:22.519Z,98878.91
2023-01-12T14:59:49.673Z,98883.59
2023-01-12T15:02:25.433Z,98865.78
2023-01-12T15:05:23.190Z,98880.31
2023-01-12T15:08:22.076Z,98861.72
2023-01-12T15:11:14.674Z,98863.56
2023-01-12T15:13:41.232Z,98876.44
2023-01-12T15:16:08.616Z,98873.41
2023-01-12T15:18:35.071Z,98880.09
2023-01-12T15:21:02.781Z,98890.91
2023-01-12T15:23:32.582Z,98886.78
2023-01-12T15:25:59.291Z,98885.38
2023-01-12T15:28:25.756Z,98894.78
2023-01-12T15:30:52.925Z,98902.69
2023-01-12T15:33:19.495Z,98903.97
2023-01-12T15:35:46.944Z,98908.56
2023-01-12T15:38:15.142Z,98908.56
2023-01-12T15:40:42.380Z,98903.13
2023-01-12T15:43:14.156Z,98901.31
2023-01-12T15:45:44.097Z,98901.03
2023-01-12T15:48:11.636Z,98902.31
2023-01-12T15:50:40.398Z,98889.38
2023-01-12T15:53:22.408Z,98886.06
2023-01-12T15:55:49.574Z,98878.69
2023-01-12T15:58:16.499Z,98880.91
2023-01-12T16:00:46.849Z,98876.22
2023-01-12T16:03:34.647Z,98884.50
2023-01-12T16:06:01.207Z,98893.69
2023-01-12T16:08:27.936Z,98903.09
2023-01-12T16:10:54.493Z,98895.25
2023-01-12T16:13:20.978Z,98882.50
2023-01-12T16:15:47.396Z,98882.66
2023-01-12T16:18:14.091Z,98877.69
2023-01-12T16:20:40.513Z,98880.56
2023-01-12T16:23:06.823Z,98874.97
2023-01-12T16:25:33.200Z,98876.53
2023-01-12T16:27:59.831Z,98881.03
2023-01-12T16:30:26.305Z,98872.97
2023-01-12T16:32:52.680Z,98878.38
2023-01-12T16:35:19.096Z,98887.47
2023-01-12T16:37:45.375Z,98890.88
2023-01-12T16:40:12.282Z,98898.59
2023-01-12T16:42:38.782Z,98894.94
2023-01-12T16:45:05.888Z,98883.16
2023-01-12T16:47:32.534Z,98891.31
2023-01-12T16:49:59.709Z,98900.78
2023-01-12T16:52:26.628Z,98877.25
2023-01-12T16:54:53.128Z,98869.56
2023-01-12T16:57:19.487Z,98879.41
2023-01-12T16:59:46.308Z,98869.56
2023-01-12T17:02:15.990Z,98868.44
2023-01-12T17:04:43.047Z,98865.41
2023-01-12T17:07:10.267Z,98869.31
2023-01-12T17:09:38.856Z,98873.53
2023-01-12T17:12:06.272Z,98876.09
2023-01-12T17:14:33.477Z,98882.44
2023-01-12T17:17:02.531Z,98889.13
2023-01-12T17:19:31.210Z,98902.97
2023-01-12T17:21:59.427Z,98901.50
2023-01-12T17:24:26.006Z,98900.84
2023-01-12T17:26:53.489Z,98886.34
2023-01-12T17:29:20.604Z,98882.94
2023-01-12T17:31:47.569Z,98891.75
2023-01-12T17:34:15.434Z,98898.91
2023-01-12T17:36:42.393Z,98905.25
2023-01-12T17:39:10.056Z,98908.75
2023-01-12T17:41:38.025Z,98905.44
2023-01-12T17:44:05.791Z,98907.63
2023-01-12T17:46:33.284Z,98901.28
2023-01-12T17:49:05.669Z,98898.00
2023-01-12T17:51:32.563Z,98899.94
2023-01-12T17:54:00.916Z,98885.53
2023-01-12T17:56:29.406Z,98891.84
2023-01-12T17:58:56.177Z,98881.91
2023-01-12T18:01:27.555Z,98893.94
2023-01-12T18:03:54.026Z,98887.34
2023-01-12T18:06:26.482Z,98889.00
2023-01-12T18:08:55.110Z,98876.97
2023-01-12T18:11:21.853Z,98877.16
2023-01-12T18:13:48.800Z,98869.34
2023-01-12T18:16:16.200Z,98866.88
2023-01-12T18:18:43.535Z,98876.03
2023-01-12T18:21:12.303Z,98876.25
2023-01-12T18:23:39.363Z,98874.56
2023-01-12T18:26:08.634Z,98883.28
2023-01-12T18:28:37.741Z,98886.97
2023-01-12T18:31:09.958Z,98878.09
2023-01-12T18:33:37.365Z,98871.72
2023-01-12T18:36:11.377Z,98867.78
2023-01-12T18:38:38.192Z,98872.63
2023-01-12T18:41:05.227Z,98862.94
2023-01-12T18:43:32.181Z,98863.75
2023-01-12T18:46:08.280Z,98867.44
2023-01-12T18:48:37.304Z,98869.06
2023-01-12T18:51:04.213Z,98867.22
2023-01-12T18:53:30.855Z,98860.34
2023-01-12T18:55:57.973Z,98846.22
2023-01-12T18:58:29.437Z,98831.25
2023-01-12T19:00:58.784Z,98835.84
2023-01-12T19:03:25.412Z,98826.13
2023-01-12T19:05:52.347Z,98813.25
2023-01-12T19:08:19.000Z,98814.63
2023-01-12T19:10:45.664Z,98827.84
2023-01-12T19:13:12.262Z,98839.31
2023-01-12T19:15:40.370Z,98837.69
2023-01-12T19:18:06.879Z,98838.69
2023-01-12T19:20:33.915Z,98839.06
2023-01-12T19:23:00.733Z,98821.53
2023-01-12T19:25:28.423Z,98835.66
2023-01-12T19:27:54.928Z,98840.53
2023-01-12T19:30:22.582Z,98836.19
2023-01-12T19:32:49.362Z,98835.38
2023-01-12T19:35:15.767Z,98825.38
2023-01-12T19:37:47.436Z,98843.09
2023-01-12T19:40:14.603Z,98846.03
2023-01-12T19:42:41.247Z,98836.41
2023-01-12T19:45:08.184Z,98823.63
2023-01-12T19:47:35.808Z,98816.47
2023-01-12T19:50:02.685Z,98811.50
2023-01-12T19:52:29.127Z,98810.69
2023-01-12T19:54:55.587Z,98819.03
2023-01-12T19:57:21.992Z,98810.31
2023-01-12T19:59:48.429Z,98800.13
2023-01-12T20:02:15.030Z,98796.25
2023-01-12T20:04:41.770Z,98771.88
2023-01-12T20:07:08.665Z,98769.16
2023-01-12T20:09:35.206Z,98745.44
2023-01-12T20:12:01.710Z,98751.16
2023-01-12T20:14:28.057Z,98757.50
2023-01-12T20:16:54.459Z,98743.81
2023-01-12T20:19:21.044Z,98738.91
2023-01-12T20:21:48.353Z,98738.25
2023-01-12T20:24:15.488Z,98743.72
2023-01-12T20:26:42.115Z,98752.72
2023-01-12T20:29:08.774Z,98726.03
2023-01-12T20:31:35.762Z,98712.78
2023-01-12T20:34:02.365Z,98724.94
2023-01-12T20:36:29.045Z,98721.56
2023-01-12T20:38:55.743Z,98705.38
2023-01-12T20:41:25.465Z,98704.06
2023-01-12T20:43:51.884Z,98703.97
2023-01-12T20:46:18.331Z,98697.94
2023-01-12T20:48:44.869Z,98694.06
2023-01-12T20:51:13.590Z,98692.47
2023-01-12T20:53:40.124Z,98686.13
2023-01-12T20:56:07.798Z,98682.47
2023-01-12T20:58:34.995Z,98677.06
2023-01-12T21:01:02.132Z,98679.81
2023-01-12T21:03:28.504Z,98668.13
2023-01-12T21:05:55.118Z,98668.50
2023-01-12T21:08:21.567Z,98674.59
2023-01-12T21:10:51.465Z,98665.56
2023-01-12T21:13:19.266Z,98664.09
2023-01-12T21:15:46.026Z,98660.88
2023-01-12T21:18:12.755Z,98664.69
2023-01-12T21:20:43.442Z,98669.38
2023-01-12T21:23:10.358Z,98672.03
2023-01-12T21:25:41.592Z,98664.63
2023-01-12T21:28:08.054Z,98655.19
2023-01-12T21:30:34.407Z,98660.88
2023-01-12T21:33:00.719Z,98667.28
2023-01-12T21:35:27.338Z,98644.97
2023-01-12T21:37:53.979Z,98658.88
2023-01-12T21:40:20.398Z,98643.38
2023-01-12T21:42:49.344Z,98635.56
2023-01-12T21:45:15.728Z,98639.31
2023-01-12T21:47:42.267Z,98640.97
2023-01-12T21:50:09.867Z,98636.25
2023-01-12T21:52:36.527Z,98624.66
2023-01-12T21:55:03.379Z,98631.09
2023-01-12T21:57:30.101Z,98636.69
2023-01-12T21:59:56.617Z,98632.47
2023-01-12T22:02:23.188Z,98622.06
2023-01-12T22:04:50.035Z,98628.53
2023-01-12T22:07:16.718Z,98631.59
2023-01-12T22:09:43.338Z,98648.59
2023-01-12T22:12:10.079Z,98627.41
2023-01-12T22:14:36.701Z,98629.84
2023-01-12T22:17:03.219Z,98625.81
2023-01-12T22:19:29.984Z,98631.09
2023-01-12T22:21:56.914Z,98632.66
2023-01-12T22:24:23.678Z,98629.78
2023-01-12T22:26:50.300Z,98628.41
2023-01-12T22:29:17.032Z,98619.56
2023-01-12T22:31:43.489Z,98625.75
2023-01-12T22:34:09.923Z,98613.31
2023-01-12T22:36:36.539Z,98617.00
2023-01-12T22:39:02.977Z,98612.06
2023-01-12T22:41:29.364Z,98606.47
2023-01-12T22:43:55.720Z,98622.25
2023-01-12T22:46:24.828Z,98608.31
2023-01-12T22:48:53.244Z,98619.72
2023-01-12T22:51:21.273Z,98617.50
2023-01-12T22:53:48.351Z,98610.75
2023-01-12T22:56:15.023Z,98603.28
2023-01-12T22:58:49.945Z,98587.78
2023-01-12T23:01:18.770Z,98586.97
2023-01-12T23:03:46.380Z,98573.09
2023-01-12T23:06:15.684Z,98584.09
2023-01-12T23:08:44.479Z,98582.47
2023-01-12T23:11:13.794Z,98572.41
2023-01-12T23:13:41.321Z,98574.63
2023-01-12T23:16:09.718Z,98581.47
2023-01-12T23:18:38.315Z,98570.69
2023-01-12T23:21:10.321Z,98568.53
2023-01-12T23:23:38.414Z,98567.97
2023-01-12T23:26:07.582Z,98581.28
2023-01-12T23:28:34.616Z,98561.19
2023-01-12T23:31:22.034Z,98562.03
2023-01-12T23:33:49.245Z,98549.69
2023-01-12T23:36:27.469Z,98555.22
2023-01-12T23:38:56.351Z,98555.03
2023-01-12T23:41:24.937Z,98565.59
2023-01-12T23:43:53.267Z,98554.94
2023-01-12T23:46:20.211Z,98554.34
2023-01-12T23:48:46.791Z,98560.06
2023-01-12T23:51:13.466Z,98549.06
2023-01-12T23:53:40.013Z,98549.31
2023-01-12T23:56:11.771Z,98550.66
2023-01-12T23:58:38.463Z,98549.22
